Time;durP1;ratioP1;P1;durP2;ratioP2;P2;SDS_P1;SDS_P2;PMS_P1;PMS_P2;Temp;Humidity;BMP_temperature;BMP_pressure;BME280_temperature;BME280_humidity;BME280_pressure;Samples;Min_cycle;Max_cycle;Signal;HPM_P1;HPM_P2
2022/12/03 00:00:07;;;;;;;67.43;34.17;;;1.00;99.90;;;;;;2049460;28;20046;-67
2022/12/03 00:01:07;;;;;;;64.63;33.42;;;1.00;99.90;;;;;;2054993;28;20081;-67
2022/12/03 00:02:08;;;;;;;64.70;32.28;;;1.00;99.90;;;;;;2054904;28;20038;-66
2022/12/03 00:03:09;;;;;;;62.50;33.08;;;1.00;99.90;;;;;;2055914;28;20054;-65
2022/12/03 00:04:09;;;;;;;63.63;32.55;;;1.00;99.90;;;;;;2055514;28;20023;-67
2022/12/03 00:05:10;;;;;;;64.47;32.08;;;1.00;99.90;;;;;;2055638;28;20366;-66
2022/12/03 00:06:11;;;;;;;64.03;31.95;;;1.00;99.90;;;;;;2056347;28;20106;-67
2022/12/03 00:07:11;;;;;;;62.70;32.13;;;1.00;99.90;;;;;;2055898;28;20107;-67
2022/12/03 00:08:12;;;;;;;63.28;32.42;;;1.00;99.90;;;;;;2054729;28;20034;-67
2022/12/03 00:09:13;;;;;;;65.53;33.85;;;1.00;99.90;;;;;;2055496;28;20050;-67
2022/12/03 00:10:17;;;;;;;64.55;32.80;;;1.00;99.90;;;;;;2055311;28;20034;-67
2022/12/03 00:11:17;;;;;;;62.15;32.33;;;1.00;99.90;;;;;;2054493;28;20035;-67
2022/12/03 00:12:18;;;;;;;64.38;32.97;;;1.00;99.90;;;;;;2054704;28;20117;-66
2022/12/03 00:13:19;;;;;;;64.32;32.83;;;1.00;99.90;;;;;;2054581;28;20046;-66
2022/12/03 00:14:19;;;;;;;66.35;33.70;;;1.00;99.90;;;;;;2046694;28;20033;-66
2022/12/03 00:15:20;;;;;;;66.18;33.00;;;1.00;99.90;;;;;;2054395;28;20456;-66
2022/12/03 00:16:20;;;;;;;65.47;33.05;;;1.00;99.90;;;;;;2054835;28;20087;-67
2022/12/03 00:17:21;;;;;;;66.13;33.30;;;0.90;99.90;;;;;;2055036;28;20031;-66
2022/12/03 00:18:22;;;;;;;64.30;32.42;;;0.90;99.90;;;;;;2055150;28;20105;-66
2022/12/03 00:19:22;;;;;;;71.68;34.88;;;0.90;99.90;;;;;;2054951;28;20456;-67
2022/12/03 00:20:23;;;;;;;70.05;35.10;;;1.00;99.90;;;;;;2055176;28;20512;-67
2022/12/03 00:21:24;;;;;;;65.85;33.42;;;0.90;99.90;;;;;;2054672;28;20113;-66
2022/12/03 00:22:25;;;;;;;67.53;33.67;;;0.90;99.90;;;;;;2054560;28;20031;-67
2022/12/03 00:23:31;;;;;;;66.70;33.67;;;0.90;99.90;;;;;;2055343;28;20038;-67
2022/12/03 00:24:32;;;;;;;68.05;33.78;;;0.90;99.90;;;;;;2062650;28;20803;-67
2022/12/03 00:25:33;;;;;;;71.10;34.80;;;0.90;99.90;;;;;;2062590;28;20027;-67
2022/12/03 00:26:33;;;;;;;67.50;34.50;;;0.90;99.90;;;;;;2054953;28;20536;-67
2022/12/03 00:27:34;;;;;;;63.90;32.65;;;0.90;99.90;;;;;;2054504;28;20130;-67
2022/12/03 00:28:35;;;;;;;66.10;33.13;;;0.90;99.90;;;;;;2054753;28;20026;-67
2022/12/03 00:29:35;;;;;;;65.47;32.80;;;0.90;99.90;;;;;;2055242;28;20023;-67
2022/12/03 00:30:36;;;;;;;66.05;33.17;;;0.90;99.90;;;;;;2055047;28;20054;-67
2022/12/03 00:31:37;;;;;;;63.10;33.13;;;0.90;99.90;;;;;;2055263;28;20018;-67
2022/12/03 00:32:37;;;;;;;67.68;34.00;;;0.90;99.90;;;;;;2055745;28;20458;-67
2022/12/03 00:33:38;;;;;;;67.45;33.22;;;0.90;99.90;;;;;;2055734;28;20098;-67
2022/12/03 00:34:39;;;;;;;65.05;33.50;;;0.90;99.90;;;;;;2055781;28;20022;-67
2022/12/03 00:35:39;;;;;;;65.88;32.45;;;0.90;99.90;;;;;;2055693;28;20094;-67
2022/12/03 00:36:40;;;;;;;61.90;32.05;;;0.90;99.90;;;;;;2055578;28;20073;-67
2022/12/03 00:37:41;;;;;;;65.53;33.17;;;0.90;99.90;;;;;;2055505;28;20537;-67
2022/12/03 00:38:42;;;;;;;66.45;33.03;;;0.90;99.90;;;;;;2055399;28;20041;-67
2022/12/03 00:39:42;;;;;;;68.47;33.60;;;0.90;99.90;;;;;;2055357;28;20034;-68
2022/12/03 00:40:43;;;;;;;66.72;34.05;;;0.90;99.90;;;;;;2055417;28;20117;-67
2022/12/03 00:41:44;;;;;;;65.30;32.88;;;0.90;99.90;;;;;;2055580;28;20074;-67
2022/12/03 00:42:44;;;;;;;64.47;32.63;;;0.90;99.90;;;;;;2055597;28;20113;-66
2022/12/03 00:43:45;;;;;;;65.05;32.83;;;0.90;99.90;;;;;;2055876;28;20051;-67
2022/12/03 00:44:46;;;;;;;64.63;32.42;;;0.90;99.90;;;;;;2059081;28;20101;-67
2022/12/03 00:45:46;;;;;;;67.85;33.22;;;0.90;99.90;;;;;;2059485;28;20045;-67
2022/12/03 00:46:47;;;;;;;66.07;31.88;;;0.90;99.90;;;;;;2055560;28;20023;-67
2022/12/03 00:47:47;;;;;;;66.15;32.33;;;0.90;99.90;;;;;;2055587;28;20031;-67
2022/12/03 00:48:48;;;;;;;66.07;33.33;;;1.00;99.90;;;;;;2055538;28;20661;-67
2022/12/03 00:49:49;;;;;;;63.58;33.00;;;0.90;99.90;;;;;;2055404;28;20023;-67
2022/12/03 00:50:49;;;;;;;68.15;32.97;;;0.90;99.90;;;;;;2055422;28;20094;-67
2022/12/03 00:51:51;;;;;;;66.30;33.72;;;0.90;99.90;;;;;;2062954;28;20044;-66
2022/12/03 00:52:52;;;;;;;66.68;32.45;;;0.90;99.90;;;;;;2063334;28;20073;-67
2022/12/03 00:53:52;;;;;;;63.85;32.95;;;0.90;99.90;;;;;;2060473;28;20034;-67
2022/12/03 00:54:53;;;;;;;64.95;32.25;;;0.90;99.90;;;;;;2062534;28;20038;-67
2022/12/03 00:55:54;;;;;;;64.20;32.05;;;0.90;99.90;;;;;;2054799;28;20023;-67
2022/12/03 00:56:54;;;;;;;65.50;32.85;;;0.90;99.90;;;;;;2055055;28;20030;-67
2022/12/03 00:57:55;;;;;;;67.65;32.75;;;0.90;99.90;;;;;;2062610;28;20505;-67
2022/12/03 00:58:56;;;;;;;65.45;32.25;;;0.90;99.90;;;;;;2054598;28;20121;-67
2022/12/03 00:59:56;;;;;;;64.57;31.85;;;0.90;99.90;;;;;;2054478;28;20043;-67
2022/12/03 01:00:57;;;;;;;68.03;32.72;;;0.90;99.90;;;;;;2055115;28;20046;-67
2022/12/03 01:01:58;;;;;;;64.15;31.75;;;1.00;99.90;;;;;;2056052;28;20385;-67
2022/12/03 01:02:58;;;;;;;63.70;32.33;;;0.90;99.90;;;;;;2052713;28;20031;-67
2022/12/03 01:03:59;;;;;;;65.30;32.67;;;1.00;99.90;;;;;;2056615;28;20041;-66
2022/12/03 01:05:00;;;;;;;64.05;32.35;;;0.90;99.90;;;;;;2056731;28;20026;-67
2022/12/03 01:06:04;;;;;;;64.32;31.95;;;0.90;99.90;;;;;;2056383;28;20030;-67
2022/12/03 01:07:05;;;;;;;65.28;33.50;;;0.90;99.90;;;;;;2056586;28;20042;-67
2022/12/03 01:08:05;;;;;;;61.45;31.42;;;0.90;99.90;;;;;;2056594;28;20509;-67
2022/12/03 01:09:06;;;;;;;65.55;32.95;;;0.90;99.90;;;;;;2056756;28;20174;-67
2022/12/03 01:10:07;;;;;;;65.85;33.08;;;0.90;99.90;;;;;;2056556;28;20365;-66
2022/12/03 01:11:36;;;;;;;63.75;32.45;;;0.90;99.90;;;;;;2057061;28;20113;-67
2022/12/03 01:12:28;;;;;;;66.80;32.03;;;0.90;99.90;;;;;;2056573;28;20038;-67
2022/12/03 01:13:29;;;;;;;63.47;31.77;;;0.90;99.90;;;;;;2056647;28;20194;-67
2022/12/03 01:14:30;;;;;;;64.35;32.28;;;0.90;99.90;;;;;;2056552;28;20113;-67
2022/12/03 01:15:30;;;;;;;67.13;32.78;;;0.90;99.90;;;;;;2056833;28;20034;-67
2022/12/03 01:16:31;;;;;;;62.85;31.85;;;0.90;99.90;;;;;;2056556;28;20026;-67
2022/12/03 01:17:32;;;;;;;64.75;31.85;;;0.90;99.90;;;;;;2056810;28;20041;-67
2022/12/03 01:18:34;;;;;;;63.65;31.95;;;0.90;99.90;;;;;;2057375;28;20494;-67
2022/12/03 01:19:35;;;;;;;68.40;33.88;;;0.90;99.90;;;;;;2065011;28;20133;-67
2022/12/03 01:20:37;;;;;;;64.75;32.42;;;0.90;99.90;;;;;;2064604;28;20033;-67
2022/12/03 01:21:38;;;;;;;65.35;32.63;;;0.90;99.90;;;;;;2058037;28;20019;-66
2022/12/03 01:22:38;;;;;;;65.55;32.60;;;0.90;99.90;;;;;;2058242;28;20054;-67
2022/12/03 01:23:39;;;;;;;67.03;32.78;;;0.90;99.90;;;;;;2056589;28;20027;-67
2022/12/03 01:24:39;;;;;;;61.05;31.33;;;0.90;99.90;;;;;;2056440;28;20038;-67
2022/12/03 01:25:40;;;;;;;63.83;32.35;;;0.90;99.90;;;;;;2056105;28;20031;-67
2022/12/03 01:26:41;;;;;;;64.85;32.35;;;0.90;99.90;;;;;;2056616;28;20098;-65
2022/12/03 01:27:42;;;;;;;64.47;32.53;;;0.90;99.90;;;;;;2056617;28;20027;-67
2022/12/03 01:28:42;;;;;;;63.22;32.80;;;0.90;99.90;;;;;;2056525;28;20031;-67
2022/12/03 01:29:43;;;;;;;63.58;31.73;;;0.90;99.90;;;;;;2056410;28;20030;-67
2022/12/03 01:32:15;;;;;;;62.65;31.30;;;0.90;99.90;;;;;;2056447;28;20485;-67
2022/12/03 01:33:16;;;;;;;66.00;32.72;;;0.90;99.90;;;;;;2056581;28;20035;-66
2022/12/03 01:34:17;;;;;;;65.30;32.15;;;1.00;99.90;;;;;;2056231;28;20422;-67
2022/12/03 01:35:17;;;;;;;64.18;31.85;;;0.90;99.90;;;;;;2056435;28;20670;-67
2022/12/03 01:36:18;;;;;;;65.70;32.45;;;0.90;99.90;;;;;;2063630;28;20296;-66
2022/12/03 01:37:21;;;;;;;63.72;32.28;;;1.00;99.90;;;;;;2059684;28;20098;-68
2022/12/03 01:38:21;;;;;;;64.03;31.88;;;1.00;99.90;;;;;;2055732;28;20101;-72
2022/12/03 01:39:22;;;;;;;67.63;33.63;;;1.00;99.90;;;;;;2056542;28;20018;-67
2022/12/03 01:40:23;;;;;;;65.45;32.95;;;1.00;99.90;;;;;;2056503;28;20426;-68
2022/12/03 01:41:24;;;;;;;62.25;31.88;;;1.00;99.90;;;;;;2056582;28;20052;-67
2022/12/03 01:42:27;;;;;;;65.38;33.38;;;1.00;99.90;;;;;;2056640;28;20051;-68
2022/12/03 01:43:28;;;;;;;67.03;33.40;;;1.00;99.90;;;;;;2056462;28;20091;-67
2022/12/03 01:44:31;;;;;;;62.22;31.88;;;1.00;99.90;;;;;;2056421;28;20027;-69
2022/12/03 01:45:32;;;;;;;65.40;32.45;;;1.00;99.90;;;;;;2056631;28;20691;-67
2022/12/03 01:46:40;;;;;;;66.40;32.92;;;1.00;99.90;;;;;;2056455;28;20169;-67
2022/12/03 01:47:41;;;;;;;64.45;31.85;;;0.90;99.90;;;;;;2056587;28;20030;-67
2022/12/03 01:48:41;;;;;;;64.55;32.42;;;1.00;99.90;;;;;;2056950;28;20081;-67
2022/12/03 01:49:49;;;;;;;64.82;32.60;;;1.00;99.90;;;;;;2056701;28;20027;-67
2022/12/03 01:50:50;;;;;;;63.80;32.25;;;1.00;99.90;;;;;;2055636;28;20030;-67
2022/12/03 01:51:52;;;;;;;62.95;31.80;;;1.00;99.90;;;;;;2047804;28;20028;-67
2022/12/03 01:52:57;;;;;;;63.33;31.33;;;1.00;99.90;;;;;;2055836;28;20058;-67
2022/12/03 01:53:59;;;;;;;64.43;32.15;;;1.00;99.90;;;;;;2056350;28;20101;-67
2022/12/03 01:55:03;;;;;;;65.00;32.42;;;1.00;99.90;;;;;;2056453;28;20034;-69
2022/12/03 01:56:04;;;;;;;64.22;32.20;;;1.00;99.90;;;;;;2055930;28;20081;-67
2022/12/03 01:57:13;;;;;;;64.07;31.92;;;0.90;99.90;;;;;;2056199;28;20486;-66
2022/12/03 01:58:14;;;;;;;66.25;32.88;;;0.90;99.90;;;;;;2056271;28;20118;-66
2022/12/03 01:59:18;;;;;;;67.47;32.33;;;0.90;99.90;;;;;;2055536;28;20041;-67
2022/12/03 02:00:22;;;;;;;69.95;34.05;;;0.90;99.90;;;;;;2055618;28;20042;-66
2022/12/03 02:01:23;;;;;;;70.30;34.13;;;0.90;99.90;;;;;;2056169;28;20034;-66
2022/12/03 02:02:27;;;;;;;67.57;34.28;;;0.90;99.90;;;;;;2055965;28;20031;-68
2022/12/03 02:03:27;;;;;;;72.93;34.10;;;0.90;99.90;;;;;;2055640;28;20027;-69
2022/12/03 02:04:28;;;;;;;82.40;36.47;;;0.90;99.90;;;;;;2055831;28;20043;-69
2022/12/03 02:05:47;;;;;;;82.85;36.65;;;0.90;99.90;;;;;;2059108;28;20210;-68
2022/12/03 02:06:47;;;;;;;81.70;36.80;;;1.00;99.90;;;;;;2048247;28;20042;-68
2022/12/03 02:07:49;;;;;;;83.82;37.72;;;0.90;99.90;;;;;;2047793;29;20037;-68
2022/12/03 02:08:49;;;;;;;77.68;35.38;;;0.90;99.90;;;;;;2056266;28;20022;-68
2022/12/03 02:09:51;;;;;;;78.57;35.45;;;0.90;99.90;;;;;;2056093;28;20206;-68
2022/12/03 02:10:55;;;;;;;77.85;35.38;;;0.90;99.90;;;;;;2056028;28;20030;-67
2022/12/03 02:11:56;;;;;;;76.20;34.95;;;0.90;99.90;;;;;;2055802;28;20038;-68
2022/12/03 02:13:06;;;;;;;75.45;34.92;;;0.90;99.90;;;;;;2056146;28;20035;-68
2022/12/03 02:14:17;;;;;;;69.82;33.83;;;0.90;99.90;;;;;;2056005;28;20034;-68
2022/12/03 02:15:19;;;;;;;69.05;32.70;;;0.90;99.90;;;;;;2055334;28;20161;-67
2022/12/03 02:16:20;;;;;;;72.43;34.65;;;0.90;99.90;;;;;;2055155;28;20370;-68
2022/12/03 02:17:21;;;;;;;67.95;33.53;;;0.90;99.90;;;;;;2056205;28;20035;-67
2022/12/03 02:18:22;;;;;;;65.40;32.72;;;0.90;99.90;;;;;;2056183;28;20059;-67
2022/12/03 02:19:29;;;;;;;68.57;34.08;;;0.90;99.90;;;;;;2056201;28;20027;-67
2022/12/03 02:20:35;;;;;;;71.05;34.85;;;0.90;99.90;;;;;;2056039;28;20033;-68
2022/12/03 02:21:56;;;;;;;67.18;33.15;;;1.00;99.90;;;;;;2056019;28;20031;-67
2022/12/03 02:23:11;;;;;;;68.57;33.55;;;1.00;99.90;;;;;;2056120;28;20063;-68
2022/12/03 02:24:33;;;;;;;67.40;33.20;;;1.00;99.90;;;;;;2055933;28;20400;-68
2022/12/03 02:25:35;;;;;;;63.47;31.55;;;0.90;99.90;;;;;;2055946;28;20119;-68
2022/12/03 02:26:36;;;;;;;64.18;31.85;;;0.90;99.90;;;;;;2056047;28;20715;-67
2022/12/03 02:27:37;;;;;;;65.90;33.38;;;0.90;99.90;;;;;;2056061;28;20113;-68
2022/12/03 02:28:37;;;;;;;64.97;32.42;;;0.90;99.90;;;;;;2056138;28;20038;-68
2022/12/03 02:29:39;;;;;;;64.03;32.45;;;0.90;99.90;;;;;;2055998;28;20046;-67
2022/12/03 02:30:40;;;;;;;61.42;31.40;;;0.90;99.90;;;;;;2056026;28;20102;-67
2022/12/03 02:31:42;;;;;;;67.53;33.90;;;1.00;99.90;;;;;;2055812;28;20065;-68
2022/12/03 02:32:42;;;;;;;68.15;35.13;;;1.00;99.90;;;;;;2055952;28;20497;-67
2022/12/03 02:33:44;;;;;;;66.15;33.50;;;1.00;99.90;;;;;;2055748;28;20119;-67
2022/12/03 02:34:45;;;;;;;67.18;33.70;;;1.00;99.90;;;;;;2055801;28;20058;-67
2022/12/03 02:35:46;;;;;;;63.63;32.42;;;1.00;99.90;;;;;;2055752;28;20031;-68
2022/12/03 02:36:47;;;;;;;63.13;32.83;;;1.00;99.90;;;;;;2071194;28;20048;-68
2022/12/03 02:37:55;;;;;;;63.90;32.70;;;1.00;99.90;;;;;;2057092;28;20030;-68
2022/12/03 02:38:55;;;;;;;61.03;31.08;;;1.00;99.90;;;;;;2048171;28;20469;-67
2022/12/03 02:39:59;;;;;;;64.95;32.20;;;1.00;99.90;;;;;;2055912;28;20035;-68
2022/12/03 02:41:04;;;;;;;63.95;32.90;;;1.00;99.90;;;;;;2056082;28;20084;-69
2022/12/03 02:43:25;;;;;;;67.93;34.33;;;0.90;99.90;;;;;;2056040;28;20038;-68
2022/12/03 02:44:26;;;;;;;65.35;32.92;;;1.00;99.90;;;;;;2055508;28;20458;-68
2022/12/03 02:45:34;;;;;;;64.32;33.53;;;1.00;99.90;;;;;;2056017;28;20065;-68
2022/12/03 02:46:35;;;;;;;66.80;33.70;;;1.00;99.90;;;;;;2059742;28;20029;-68
2022/12/03 02:47:45;;;;;;;63.78;32.80;;;0.90;99.90;;;;;;2056781;28;20026;-68
2022/12/03 02:48:45;;;;;;;62.45;32.38;;;0.90;99.90;;;;;;2055323;28;20109;-68
2022/12/03 02:49:46;;;;;;;61.35;31.20;;;0.90;99.90;;;;;;2055811;28;20022;-68
2022/12/03 02:50:51;;;;;;;60.20;31.77;;;0.90;99.90;;;;;;2055901;28;20027;-68
2022/12/03 02:51:52;;;;;;;63.08;32.45;;;0.90;99.90;;;;;;2055731;28;20027;-68
2022/12/03 02:52:54;;;;;;;62.15;30.95;;;0.90;99.90;;;;;;2055863;28;20178;-67
2022/12/03 02:53:56;;;;;;;64.50;33.15;;;0.90;99.90;;;;;;2055729;28;20030;-68
2022/12/03 02:54:57;;;;;;;61.20;31.40;;;0.90;99.90;;;;;;2055025;28;20038;-68
2022/12/03 02:56:00;;;;;;;62.47;32.22;;;0.90;99.90;;;;;;2054804;28;20509;-68
2022/12/03 02:57:01;;;;;;;60.45;30.90;;;0.90;99.90;;;;;;2055901;28;20038;-68
2022/12/03 02:58:02;;;;;;;61.05;31.88;;;0.90;99.90;;;;;;2055546;28;20086;-68
2022/12/03 02:59:04;;;;;;;59.45;30.27;;;0.90;99.90;;;;;;2055669;28;20731;-68
2022/12/03 03:00:07;;;;;;;62.15;31.63;;;0.90;99.90;;;;;;2055720;28;20026;-68
2022/12/03 03:01:09;;;;;;;65.28;33.28;;;0.90;99.90;;;;;;2055770;28;20031;-68
2022/12/03 03:02:13;;;;;;;66.50;33.45;;;0.90;99.90;;;;;;2055878;28;20023;-68
2022/12/03 03:03:15;;;;;;;62.92;32.70;;;0.90;99.90;;;;;;2056244;28;20027;-68
2022/12/03 03:04:16;;;;;;;63.63;33.25;;;0.90;99.90;;;;;;2055670;28;20027;-68
2022/12/03 03:05:20;;;;;;;65.43;33.60;;;0.90;99.90;;;;;;2055686;28;20042;-68
2022/12/03 03:06:21;;;;;;;65.53;33.42;;;1.00;99.90;;;;;;2055623;28;20556;-68
2022/12/03 03:07:22;;;;;;;63.60;32.75;;;0.90;99.90;;;;;;2055830;28;20157;-68
2022/12/03 03:08:24;;;;;;;62.53;32.78;;;0.90;99.90;;;;;;2055127;28;20480;-69
2022/12/03 03:09:24;;;;;;;61.97;32.28;;;0.90;99.90;;;;;;2055211;28;20018;-68
2022/12/03 03:10:27;;;;;;;66.28;33.95;;;0.90;99.90;;;;;;2055981;28;20104;-68
2022/12/03 03:11:28;;;;;;;64.72;34.17;;;0.90;99.90;;;;;;2055774;28;20114;-67
2022/12/03 03:12:28;;;;;;;65.20;32.80;;;0.90;99.90;;;;;;2055629;28;20035;-68
2022/12/03 03:13:32;;;;;;;64.57;33.10;;;0.90;99.90;;;;;;2056006;28;20042;-67
2022/12/03 03:14:35;;;;;;;66.38;33.20;;;0.90;99.90;;;;;;2055613;28;20454;-68
2022/12/03 03:15:37;;;;;;;63.33;32.25;;;0.80;99.90;;;;;;2046663;28;20062;-69
2022/12/03 03:16:38;;;;;;;61.40;32.05;;;0.90;99.90;;;;;;2047432;28;20059;-68
2022/12/03 03:17:39;;;;;;;60.70;31.45;;;0.80;99.90;;;;;;2055699;28;20386;-68
2022/12/03 03:18:40;;;;;;;63.08;32.53;;;0.80;99.90;;;;;;2055112;28;20399;-68
2022/12/03 03:19:41;;;;;;;64.55;33.65;;;0.90;99.90;;;;;;2055123;28;20019;-68
2022/12/03 03:20:43;;;;;;;65.85;34.05;;;0.90;99.90;;;;;;2055223;28;20034;-68
2022/12/03 03:21:43;;;;;;;65.55;33.67;;;0.90;99.90;;;;;;2047184;28;20027;-69
2022/12/03 03:22:44;;;;;;;62.75;32.60;;;0.90;99.90;;;;;;2046971;28;20082;-69
2022/12/03 03:23:45;;;;;;;65.65;33.17;;;0.90;99.90;;;;;;2053913;28;20513;-68
2022/12/03 03:24:46;;;;;;;64.70;33.92;;;0.90;99.90;;;;;;2055602;28;20050;-68
2022/12/03 03:25:53;;;;;;;67.00;34.80;;;0.90;99.90;;;;;;2053215;28;20050;-68
2022/12/03 03:26:55;;;;;;;65.28;32.70;;;0.90;99.90;;;;;;2048530;28;20847;-67
2022/12/03 03:27:56;;;;;;;63.25;32.40;;;0.90;99.90;;;;;;2055563;28;20039;-68
2022/12/03 03:28:59;;;;;;;61.63;32.78;;;0.90;99.90;;;;;;2055592;28;20030;-68
2022/12/03 03:29:59;;;;;;;60.13;31.90;;;0.90;99.90;;;;;;2064391;28;20038;-67
2022/12/03 03:31:02;;;;;;;60.25;31.65;;;0.90;99.90;;;;;;2070589;28;20052;-68
2022/12/03 03:32:04;;;;;;;66.78;34.30;;;0.90;99.90;;;;;;2065055;28;20038;-68
2022/12/03 03:33:05;;;;;;;66.03;33.55;;;0.90;99.90;;;;;;2062794;28;20116;-68
2022/12/03 03:34:06;;;;;;;63.67;33.15;;;0.90;99.90;;;;;;2054747;28;20509;-68
2022/12/03 03:35:08;;;;;;;65.30;33.38;;;0.90;99.90;;;;;;2054823;28;20038;-67
2022/12/03 03:36:09;;;;;;;62.83;33.03;;;0.90;99.90;;;;;;2054539;28;20042;-68
2022/12/03 03:37:10;;;;;;;64.90;33.72;;;0.90;99.90;;;;;;2055681;28;20035;-68
2022/12/03 03:38:11;;;;;;;65.20;33.63;;;0.90;99.90;;;;;;2055604;28;20035;-68
2022/12/03 03:39:12;;;;;;;62.42;31.75;;;0.90;99.90;;;;;;2055640;28;20138;-68
2022/12/03 03:40:13;;;;;;;60.33;31.88;;;0.90;99.90;;;;;;2055520;28;20125;-68
2022/12/03 03:41:14;;;;;;;61.90;32.22;;;0.90;99.90;;;;;;2055525;28;20078;-68
2022/12/03 03:42:15;;;;;;;61.88;32.83;;;0.90;99.90;;;;;;2055246;28;20034;-68
2022/12/03 03:43:16;;;;;;;61.00;31.67;;;0.90;99.90;;;;;;2059186;28;20031;-68
2022/12/03 03:44:17;;;;;;;61.90;31.83;;;0.90;99.90;;;;;;2055069;28;20081;-68
2022/12/03 03:45:19;;;;;;;64.18;32.83;;;0.90;99.90;;;;;;2046595;28;20162;-68
2022/12/03 03:46:20;;;;;;;60.03;31.58;;;0.90;99.90;;;;;;2046621;28;20027;-68
2022/12/03 03:47:22;;;;;;;64.85;33.22;;;0.90;99.90;;;;;;2055507;28;20023;-68
2022/12/03 03:48:23;;;;;;;64.60;32.65;;;0.80;99.90;;;;;;2055360;28;20023;-68
2022/12/03 03:49:24;;;;;;;60.63;31.90;;;0.80;99.90;;;;;;2055422;28;20030;-68
2022/12/03 03:50:28;;;;;;;61.08;31.92;;;0.80;99.90;;;;;;2055128;28;20106;-67
2022/12/03 03:51:29;;;;;;;61.55;31.23;;;0.90;99.90;;;;;;2055431;28;20060;-69
2022/12/03 03:52:29;;;;;;;62.33;31.70;;;0.90;99.90;;;;;;2055399;28;20038;-68
2022/12/03 03:53:30;;;;;;;61.88;31.92;;;0.90;99.90;;;;;;2055360;28;20026;-68
2022/12/03 03:54:31;;;;;;;62.13;31.80;;;0.80;99.90;;;;;;2055252;28;20066;-68
2022/12/03 03:55:33;;;;;;;61.38;31.73;;;0.80;99.90;;;;;;2055107;28;20034;-67
2022/12/03 03:56:34;;;;;;;63.13;32.40;;;0.90;99.90;;;;;;2055157;28;20101;-68
2022/12/03 03:57:36;;;;;;;60.95;32.15;;;0.80;99.90;;;;;;2055307;28;20054;-68
2022/12/03 03:58:37;;;;;;;62.05;32.33;;;0.80;99.90;;;;;;2055438;28;20022;-68
2022/12/03 03:59:38;;;;;;;59.60;30.90;;;0.80;99.90;;;;;;2054942;28;20042;-68
2022/12/03 04:00:40;;;;;;;61.88;32.22;;;0.80;99.90;;;;;;2046686;28;20119;-68
2022/12/03 04:01:43;;;;;;;63.30;33.20;;;0.80;99.90;;;;;;2054571;28;20034;-68
2022/12/03 04:02:44;;;;;;;63.92;32.10;;;0.90;99.90;;;;;;2055235;28;20110;-67
2022/12/03 04:03:45;;;;;;;61.95;32.17;;;0.90;99.90;;;;;;2054353;28;20030;-68
2022/12/03 04:04:47;;;;;;;61.58;31.75;;;0.80;99.90;;;;;;2054501;28;20027;-68
2022/12/03 04:05:49;;;;;;;62.30;31.52;;;0.80;99.90;;;;;;2054861;28;20349;-67
2022/12/03 04:06:50;;;;;;;59.75;31.40;;;0.80;99.90;;;;;;2055316;28;20031;-68
2022/12/03 04:07:51;;;;;;;58.78;30.38;;;0.80;99.90;;;;;;2062500;28;20476;-68
2022/12/03 04:08:51;;;;;;;63.58;32.40;;;0.80;99.90;;;;;;2062616;28;20495;-69
2022/12/03 04:09:52;;;;;;;60.22;31.45;;;0.80;99.90;;;;;;2055425;28;20029;-68
2022/12/03 04:13:31;;;;;;;56.72;29.25;;;0.90;99.90;;;;;;2062551;28;20029;-67
2022/12/03 04:14:32;;;;;;;55.28;29.65;;;0.90;99.90;;;;;;2062754;28;20098;-68
2022/12/03 04:15:33;;;;;;;57.78;30.15;;;0.90;99.90;;;;;;2054639;28;20141;-68
2022/12/03 04:16:33;;;;;;;58.05;29.83;;;0.90;99.90;;;;;;2054444;28;20379;-68
2022/12/03 04:17:34;;;;;;;58.15;29.63;;;0.90;99.90;;;;;;2055047;28;20089;-67
2022/12/03 04:18:43;;;;;;;57.15;30.38;;;0.90;99.90;;;;;;2055197;28;20038;-68
2022/12/03 04:19:44;;;;;;;57.08;30.40;;;0.90;99.90;;;;;;2054648;28;20027;-68
2022/12/03 04:20:45;;;;;;;60.67;30.55;;;0.90;99.90;;;;;;2054593;28;20025;-68
2022/12/03 04:23:05;;;;;;;57.22;30.27;;;0.90;99.90;;;;;;2055373;28;20496;-68
2022/12/03 04:24:07;;;;;;;60.95;30.88;;;0.90;99.90;;;;;;2056762;28;20041;-68
2022/12/03 04:29:11;;;;;;;57.05;28.80;;;0.90;99.90;;;;;;2056216;28;20043;-69
2022/12/03 04:30:12;;;;;;;62.47;31.25;;;0.80;99.90;;;;;;2067426;28;20060;-68
2022/12/03 04:36:30;;;;;;;59.20;29.05;;;0.80;99.90;;;;;;2055544;28;20030;-68
2022/12/03 04:37:31;;;;;;;61.38;30.33;;;0.80;99.90;;;;;;2056110;28;20034;-69
2022/12/03 04:38:32;;;;;;;54.03;29.08;;;0.80;99.90;;;;;;2055240;28;20150;-68
2022/12/03 04:39:33;;;;;;;55.15;29.13;;;0.80;99.90;;;;;;2056855;28;20037;-69
2022/12/03 04:41:53;;;;;;;56.13;28.75;;;0.80;99.90;;;;;;2055197;28;20027;-68
2022/12/03 04:42:53;;;;;;;56.67;29.98;;;0.80;99.90;;;;;;2055176;28;20157;-67
2022/12/03 04:45:13;;;;;;;57.35;29.35;;;0.80;99.90;;;;;;2055226;28;20045;-68
2022/12/03 04:46:14;;;;;;;58.65;29.98;;;0.80;99.90;;;;;;2054725;28;20031;-68
2022/12/03 04:47:17;;;;;;;56.78;29.85;;;0.80;99.90;;;;;;2055128;28;20053;-68
2022/12/03 04:48:18;;;;;;;58.28;29.85;;;0.80;99.90;;;;;;2055166;28;20050;-68
2022/12/03 04:49:19;;;;;;;55.83;29.95;;;0.80;99.90;;;;;;2054459;28;20069;-68
2022/12/03 04:50:19;;;;;;;56.95;28.90;;;0.80;99.90;;;;;;2054520;28;20101;-67
2022/12/03 04:51:20;;;;;;;56.72;29.55;;;0.80;99.90;;;;;;2055076;28;20031;-68
2022/12/03 04:52:21;;;;;;;56.83;29.85;;;0.80;99.90;;;;;;2055095;28;20497;-68
2022/12/03 04:53:21;;;;;;;58.83;30.13;;;0.80;99.90;;;;;;2055035;28;20030;-68
2022/12/03 04:54:22;;;;;;;57.60;29.33;;;0.80;99.90;;;;;;2054984;28;20121;-68
2022/12/03 04:55:25;;;;;;;58.50;29.95;;;0.80;99.90;;;;;;2055559;28;20038;-68
2022/12/03 04:56:26;;;;;;;57.75;29.95;;;0.80;99.90;;;;;;2054698;28;20070;-68
2022/12/03 04:57:27;;;;;;;57.38;29.25;;;0.80;99.90;;;;;;2055598;28;20034;-68
2022/12/03 04:58:27;;;;;;;56.22;29.73;;;0.80;99.90;;;;;;2055068;28;20053;-68
2022/12/03 04:59:28;;;;;;;58.78;30.13;;;0.80;99.90;;;;;;2055240;28;20026;-68
2022/12/03 05:00:29;;;;;;;52.40;28.65;;;0.80;99.90;;;;;;2055819;28;20026;-68
2022/12/03 05:01:29;;;;;;;56.58;28.98;;;0.80;99.90;;;;;;2055778;28;20026;-68
2022/12/03 05:02:30;;;;;;;57.00;29.42;;;0.80;99.90;;;;;;2056300;28;20026;-68
2022/12/03 05:03:31;;;;;;;56.85;29.15;;;0.90;99.90;;;;;;2056372;28;20037;-68
2022/12/03 05:04:32;;;;;;;54.00;28.50;;;0.80;99.90;;;;;;2056568;28;20114;-68
2022/12/03 05:05:32;;;;;;;55.58;29.00;;;0.80;99.90;;;;;;2055274;28;20054;-69
2022/12/03 05:06:33;;;;;;;54.72;28.63;;;0.80;99.90;;;;;;2054670;28;20031;-68
2022/12/03 05:07:34;;;;;;;56.42;29.15;;;0.90;99.90;;;;;;2055008;28;20031;-68
2022/12/03 05:08:34;;;;;;;55.85;28.80;;;0.80;99.90;;;;;;2055118;28;20066;-68
2022/12/03 05:09:35;;;;;;;56.30;28.83;;;0.90;99.90;;;;;;2055280;28;20396;-68
2022/12/03 05:10:36;;;;;;;57.00;29.38;;;0.90;99.90;;;;;;2062566;28;20076;-68
2022/12/03 05:11:37;;;;;;;58.15;29.98;;;0.90;99.90;;;;;;2062399;28;20027;-67
2022/12/03 05:12:37;;;;;;;57.05;29.65;;;0.90;99.90;;;;;;2055016;28;20026;-68
2022/12/03 05:13:38;;;;;;;55.45;28.75;;;0.90;99.90;;;;;;2054965;28;20046;-68
2022/12/03 05:14:39;;;;;;;54.50;29.13;;;0.90;99.90;;;;;;2055112;28;20381;-68
2022/12/03 05:15:39;;;;;;;58.38;30.15;;;0.90;99.90;;;;;;2062241;28;20023;-67
2022/12/03 05:16:40;;;;;;;61.63;31.73;;;0.90;99.90;;;;;;2063829;28;20026;-67
2022/12/03 05:17:41;;;;;;;58.88;30.98;;;0.90;99.90;;;;;;2062208;28;20033;-68
2022/12/03 05:18:41;;;;;;;59.50;31.20;;;0.90;99.90;;;;;;2054129;28;20058;-68
2022/12/03 05:21:01;;;;;;;60.10;30.80;;;0.90;99.90;;;;;;2055089;28;20892;-68
2022/12/03 05:22:02;;;;;;;58.80;30.45;;;0.80;99.90;;;;;;2054845;28;20101;-68
2022/12/03 05:23:03;;;;;;;59.92;31.30;;;0.80;99.90;;;;;;2055030;28;20549;-68
2022/12/03 05:24:04;;;;;;;59.95;30.35;;;0.80;99.90;;;;;;2054698;28;20031;-67
2022/12/03 05:25:05;;;;;;;59.20;30.95;;;0.80;99.90;;;;;;2054992;28;20069;-68
2022/12/03 05:26:06;;;;;;;62.90;31.90;;;0.80;99.90;;;;;;2054517;28;20035;-68
2022/12/03 05:27:07;;;;;;;59.30;31.48;;;0.80;99.90;;;;;;2055069;28;20023;-68
2022/12/03 05:28:08;;;;;;;60.78;31.90;;;0.80;99.90;;;;;;2055011;28;20544;-68
2022/12/03 05:29:08;;;;;;;61.25;30.80;;;0.90;99.90;;;;;;2054937;28;20035;-68
2022/12/03 05:30:09;;;;;;;59.72;30.38;;;0.80;99.90;;;;;;2062409;28;20125;-68
2022/12/03 05:31:10;;;;;;;56.42;30.80;;;0.80;99.90;;;;;;2062243;28;20033;-68
2022/12/03 05:32:11;;;;;;;61.70;31.65;;;0.90;99.90;;;;;;2054908;28;20548;-68
2022/12/03 05:33:11;;;;;;;60.28;31.00;;;0.90;99.90;;;;;;2062306;28;20045;-68
2022/12/03 05:34:12;;;;;;;59.33;30.15;;;0.90;99.90;;;;;;2062082;28;20555;-67
2022/12/03 05:35:13;;;;;;;59.75;30.77;;;0.90;99.90;;;;;;2057829;28;20030;-68
2022/12/03 05:36:14;;;;;;;56.58;29.45;;;0.90;99.90;;;;;;2059121;28;20027;-68